createdAt,value
2023-05-25T00:01:37.955Z,3.35
2023-05-25T00:04:05.431Z,2.97
2023-05-25T00:06:33.298Z,2.65
2023-05-25T00:09:00.589Z,2.40
2023-05-25T00:11:27.597Z,2.75
2023-05-25T00:13:54.861Z,2.60
2023-05-25T00:16:21.900Z,2.35
2023-05-25T00:18:49.292Z,2.67
2023-05-25T00:21:16.757Z,2.65
2023-05-25T00:23:44.144Z,2.30
2023-05-25T00:26:11.160Z,2.70
2023-05-25T00:28:38.586Z,2.40
2023-05-25T00:31:05.731Z,2.60
2023-05-25T00:33:32.812Z,2.80
2023-05-25T00:36:00.258Z,2.50
2023-05-25T00:38:27.542Z,2.45
2023-05-25T00:40:57.771Z,2.25
2023-05-25T00:43:24.760Z,2.60
2023-05-25T00:45:51.999Z,2.28
2023-05-25T00:48:19.144Z,2.33
2023-05-25T00:50:46.593Z,2.40
2023-05-25T00:53:14.656Z,2.42
2023-05-25T00:55:54.785Z,2.75
2023-05-25T00:58:27.181Z,2.00
2023-05-25T01:00:57.868Z,2.28
2023-05-25T01:03:29.816Z,1.85
2023-05-25T01:05:58.155Z,2.55
2023-05-25T01:08:27.044Z,2.30
2023-05-25T01:10:55.723Z,2.17
2023-05-25T01:13:23.559Z,2.78
2023-05-25T01:15:52.631Z,2.05
2023-05-25T01:18:19.995Z,2.45
2023-05-25T01:20:59.056Z,2.33
2023-05-25T01:23:33.646Z,2.53
2023-05-25T01:26:04.484Z,2.33
2023-05-25T01:28:40.350Z,2.63
2023-05-25T01:31:09.462Z,2.38
2023-05-25T01:33:38.168Z,2.30
2023-05-25T01:36:06.262Z,2.50
2023-05-25T01:38:33.994Z,2.83
2023-05-25T01:41:00.842Z,2.60
2023-05-25T01:43:27.746Z,3.10
2023-05-25T01:46:02.591Z,2.97
2023-05-25T01:48:51.112Z,3.05
2023-05-25T01:51:26.971Z,2.97
2023-05-25T01:53:59.991Z,3.20
2023-05-25T01:56:29.107Z,3.08
2023-05-25T01:58:59.079Z,2.80
2023-05-25T02:01:28.051Z,2.83
2023-05-25T02:03:56.500Z,3.15
2023-05-25T02:06:23.906Z,3.88
2023-05-25T02:08:51.390Z,4.00
2023-05-25T02:11:18.272Z,3.60
2023-05-25T02:13:45.527Z,3.92
2023-05-25T02:16:12.435Z,3.60
2023-05-25T02:18:39.530Z,3.47
2023-05-25T02:21:06.452Z,3.75
2023-05-25T02:23:33.457Z,3.80
2023-05-25T02:26:00.484Z,3.40
2023-05-25T02:28:27.833Z,3.40
2023-05-25T02:30:54.802Z,3.17
2023-05-25T02:33:22.316Z,2.67
2023-05-25T02:35:49.965Z,2.67
2023-05-25T02:38:17.070Z,2.67
2023-05-25T02:40:46.253Z,2.90
2023-05-25T02:43:13.179Z,2.70
2023-05-25T02:45:40.681Z,2.58
2023-05-25T02:48:07.653Z,2.67
2023-05-25T02:50:34.634Z,2.67
2023-05-25T02:53:01.587Z,2.15
2023-05-25T02:55:28.902Z,2.35
2023-05-25T02:57:55.924Z,2.25
2023-05-25T03:00:23.777Z,2.60
2023-05-25T03:02:50.865Z,2.42
2023-05-25T03:05:18.303Z,2.42
2023-05-25T03:07:45.981Z,2.50
2023-05-25T03:10:13.293Z,2.40
2023-05-25T03:12:40.294Z,2.72
2023-05-25T03:15:09.331Z,2.40
2023-05-25T03:17:36.704Z,2.05
2023-05-25T03:20:04.369Z,2.42
2023-05-25T03:22:31.447Z,2.03
2023-05-25T03:24:59.728Z,2.55
2023-05-25T03:27:26.594Z,2.53
2023-05-25T03:29:53.853Z,1.85
2023-05-25T03:32:21.768Z,2.38
2023-05-25T03:34:48.783Z,2.05
2023-05-25T03:37:15.772Z,2.42
2023-05-25T03:39:43.141Z,2.53
2023-05-25T03:42:09.976Z,2.33
2023-05-25T03:44:37.917Z,2.85
2023-05-25T03:47:05.962Z,2.40
2023-05-25T03:49:33.327Z,2.42
2023-05-25T03:52:01.351Z,2.63
2023-05-25T03:54:28.507Z,3.28
2023-05-25T03:56:56.850Z,2.60
2023-05-25T03:59:25.502Z,2.65
2023-05-25T04:01:52.794Z,2.63
2023-05-25T04:04:20.684Z,2.70
2023-05-25T04:06:49.057Z,2.22
2023-05-25T04:09:16.251Z,2.30
2023-05-25T04:11:44.002Z,2.03
2023-05-25T04:14:11.463Z,2.22
2023-05-25T04:16:41.390Z,2.35
2023-05-25T04:19:08.530Z,2.13
2023-05-25T04:21:36.334Z,2.40
2023-05-25T04:24:03.446Z,2.20
2023-05-25T04:26:30.497Z,2.63
2023-05-25T04:28:58.373Z,1.90
2023-05-25T04:31:27.167Z,2.05
2023-05-25T04:33:56.189Z,2.20
2023-05-25T04:36:24.123Z,2.17
2023-05-25T04:38:52.280Z,2.15
2023-05-25T04:41:19.641Z,2.00
2023-05-25T04:44:03.610Z,1.92
2023-05-25T04:46:37.742Z,1.83
2023-05-25T04:49:05.735Z,1.98
2023-05-25T04:51:32.888Z,2.33
2023-05-25T04:53:59.913Z,2.00
2023-05-25T04:56:27.261Z,3.17
2023-05-25T04:58:54.617Z,3.72
2023-05-25T05:01:21.586Z,3.70
2023-05-25T05:03:48.547Z,3.10
2023-05-25T05:06:15.514Z,3.85
2023-05-25T05:08:42.448Z,3.20
2023-05-25T05:11:09.365Z,3.33
2023-05-25T05:13:36.378Z,3.28
2023-05-25T05:16:03.792Z,3.20
2023-05-25T05:18:31.433Z,3.67
2023-05-25T05:20:58.374Z,4.22
2023-05-25T05:23:25.704Z,3.40
2023-05-25T05:25:52.595Z,3.40
2023-05-25T05:28:19.553Z,2.45
2023-05-25T05:30:47.544Z,2.67
2023-05-25T05:33:14.808Z,2.80
2023-05-25T05:35:42.436Z,2.90
2023-05-25T05:38:09.647Z,2.78
2023-05-25T05:40:36.786Z,2.42
2023-05-25T05:43:03.674Z,2.45
2023-05-25T05:45:30.854Z,2.75
2023-05-25T05:47:57.869Z,2.30
2023-05-25T05:50:24.861Z,2.55
2023-05-25T05:52:53.731Z,2.53
2023-05-25T05:55:21.168Z,2.80
2023-05-25T05:57:48.171Z,3.25
2023-05-25T06:00:16.324Z,2.70
2023-05-25T06:02:43.514Z,3.58
2023-05-25T06:05:10.605Z,2.75
2023-05-25T06:07:38.589Z,2.92
2023-05-25T06:10:06.280Z,3.15
2023-05-25T06:12:33.367Z,2.85
2023-05-25T06:15:00.267Z,3.13
2023-05-25T06:17:29.673Z,2.95
2023-05-25T06:19:56.868Z,3.28
2023-05-25T06:22:27.837Z,3.00
2023-05-25T06:24:55.073Z,2.90
2023-05-25T06:27:23.370Z,2.80
2023-05-25T06:29:50.893Z,3.20
2023-05-25T06:32:17.914Z,3.47
2023-05-25T06:34:44.965Z,2.53
2023-05-25T06:37:12.342Z,2.60
2023-05-25T06:39:40.665Z,2.60
2023-05-25T06:42:07.901Z,2.70
2023-05-25T06:44:35.030Z,2.97
2023-05-25T06:47:02.757Z,2.80
2023-05-25T06:49:30.485Z,3.17
2023-05-25T06:51:57.824Z,2.50
2023-05-25T06:54:24.776Z,3.03
2023-05-25T06:56:51.883Z,2.85
2023-05-25T06:59:19.067Z,2.58
2023-05-25T07:01:47.482Z,2.20
2023-05-25T07:04:15.028Z,2.40
2023-05-25T07:06:42.002Z,2.67
2023-05-25T07:09:08.885Z,3.42
2023-05-25T07:11:35.829Z,2.90
2023-05-25T07:14:03.287Z,2.85
2023-05-25T07:16:30.285Z,2.95
2023-05-25T07:18:59.318Z,2.85
2023-05-25T07:21:33.387Z,2.30
2023-05-25T07:24:00.782Z,3.10
2023-05-25T07:26:28.053Z,2.42
2023-05-25T07:28:55.089Z,2.45
2023-05-25T07:31:22.679Z,2.47
2023-05-25T07:33:49.972Z,2.65
2023-05-25T07:36:17.342Z,2.25
2023-05-25T07:38:44.289Z,2.28
2023-05-25T07:41:13.581Z,2.20
2023-05-25T07:43:40.742Z,2.20
2023-05-25T07:46:07.737Z,2.85
2023-05-25T07:48:34.845Z,2.42
2023-05-25T07:51:02.253Z,2.70
2023-05-25T07:53:29.632Z,2.55
2023-05-25T07:55:57.120Z,2.22
2023-05-25T07:58:23.986Z,2.10
2023-05-25T08:00:51.800Z,1.95
2023-05-25T08:03:20.931Z,2.47
2023-05-25T08:05:51.937Z,2.22
2023-05-25T08:08:19.461Z,1.85
2023-05-25T08:10:46.378Z,1.92
2023-05-25T08:13:13.358Z,1.98
2023-05-25T08:15:40.753Z,2.10
2023-05-25T08:18:08.244Z,1.85
2023-05-25T08:20:35.453Z,1.67
2023-05-25T08:23:02.506Z,1.50
2023-05-25T08:25:29.550Z,1.83
2023-05-25T08:27:56.850Z,2.05
2023-05-25T08:30:24.269Z,2.90
2023-05-25T08:32:51.572Z,1.85
2023-05-25T08:35:18.759Z,3.08
2023-05-25T08:37:45.745Z,2.08
2023-05-25T08:40:17.130Z,1.75
2023-05-25T08:42:45.324Z,1.60
2023-05-25T08:45:26.566Z,2.75
2023-05-25T08:48:23.809Z,2.35
2023-05-25T08:51:08.138Z,1.92
2023-05-25T08:53:39.358Z,2.00
2023-05-25T08:56:09.310Z,2.10
2023-05-25T08:58:44.275Z,2.22
2023-05-25T09:01:15.434Z,1.90
2023-05-25T09:03:44.131Z,2.03
2023-05-25T09:06:11.806Z,2.20
2023-05-25T09:08:39.829Z,1.67
2023-05-25T09:11:07.948Z,1.55
2023-05-25T09:13:36.328Z,1.60
2023-05-25T09:16:03.491Z,2.00
2023-05-25T09:18:30.597Z,2.28
2023-05-25T09:20:57.943Z,1.60
2023-05-25T09:23:25.315Z,1.60
2023-05-25T09:25:54.027Z,1.60
2023-05-25T09:30:51.580Z,1.60
2023-05-25T09:33:19.284Z,1.60
2023-05-25T09:35:46.847Z,2.00
2023-05-25T09:38:15.801Z,1.70
2023-05-25T09:40:44.046Z,1.55
2023-05-25T09:43:17.218Z,1.50
2023-05-25T09:45:49.447Z,1.65
2023-05-25T09:48:17.924Z,1.50
2023-05-25T09:50:48.048Z,1.40
2023-05-25T09:53:16.618Z,1.50
2023-05-25T09:55:53.045Z,1.63
2023-05-25T09:58:24.064Z,1.35
2023-05-25T10:00:56.482Z,1.15
2023-05-25T10:03:23.512Z,1.60
2023-05-25T10:05:51.947Z,1.42
2023-05-25T10:08:21.897Z,1.30
2023-05-25T10:10:50.201Z,1.17
2023-05-25T10:13:21.989Z,1.45
2023-05-25T10:15:54.036Z,1.50
2023-05-25T10:18:28.975Z,1.23
2023-05-25T10:21:04.148Z,1.20
2023-05-25T10:23:42.807Z,1.17
2023-05-25T10:26:12.884Z,1.23
2023-05-25T10:28:43.128Z,1.17
2023-05-25T10:31:10.852Z,1.40
2023-05-25T10:33:37.884Z,1.30
2023-05-25T10:36:10.594Z,1.10
2023-05-25T10:38:40.178Z,1.10
2023-05-25T10:41:11.083Z,1.30
2023-05-25T10:43:39.947Z,1.35
2023-05-25T10:46:07.593Z,1.08
2023-05-25T10:48:39.206Z,1.25
2023-05-25T10:51:09.078Z,1.65
2023-05-25T10:53:37.506Z,1.08
2023-05-25T10:56:06.765Z,1.40
2023-05-25T10:58:34.469Z,1.23
2023-05-25T11:01:08.916Z,1.70
2023-05-25T11:03:45.305Z,1.17
2023-05-25T11:06:16.492Z,1.30
2023-05-25T11:08:57.364Z,1.35
2023-05-25T11:11:42.937Z,1.13
2023-05-25T11:14:23.799Z,1.40
2023-05-25T11:17:14.524Z,1.30
2023-05-25T11:19:43.301Z,1.33
2023-05-25T11:22:21.114Z,1.08
2023-05-25T11:24:50.125Z,1.52
2023-05-25T11:27:27.363Z,1.23
2023-05-25T11:29:56.714Z,1.42
2023-05-25T11:32:26.091Z,1.30
2023-05-25T11:34:54.178Z,1.13
2023-05-25T11:37:24.906Z,1.30
2023-05-25T11:39:52.772Z,1.40
2023-05-25T11:42:24.633Z,1.23
2023-05-25T11:44:52.310Z,1.30
2023-05-25T11:47:23.352Z,1.52
2023-05-25T11:49:50.720Z,1.33
2023-05-25T11:52:19.860Z,1.40
2023-05-25T11:54:47.396Z,1.35
2023-05-25T11:57:25.744Z,1.20
2023-05-25T11:59:57.926Z,1.48
2023-05-25T12:02:25.452Z,1.30
2023-05-25T12:05:03.821Z,1.30
2023-05-25T12:07:34.294Z,1.10
2023-05-25T12:10:09.633Z,1.33
2023-05-25T12:12:43.648Z,1.60
2023-05-25T12:15:21.930Z,1.20
2023-05-25T12:17:50.193Z,1.30
2023-05-25T12:20:18.264Z,1.00
2023-05-25T12:22:46.533Z,1.23
2023-05-25T12:25:14.747Z,1.00
2023-05-25T12:27:41.830Z,1.10
2023-05-25T12:30:10.542Z,1.40
2023-05-25T12:33:02.571Z,1.10
2023-05-25T12:35:44.083Z,0.90
2023-05-25T12:38:15.697Z,1.10
2023-05-25T12:40:42.983Z,1.13
2023-05-25T12:43:14.351Z,1.00
2023-05-25T12:45:44.677Z,1.08
2023-05-25T12:48:12.083Z,1.25
2023-05-25T12:50:39.271Z,1.10
2023-05-25T12:53:06.429Z,0.90
2023-05-25T12:55:35.740Z,1.13
2023-05-25T12:58:05.565Z,1.10
2023-05-25T13:00:38.240Z,1.20
2023-05-25T13:03:09.209Z,1.10
2023-05-25T13:05:38.143Z,1.20
2023-05-25T13:08:06.969Z,1.00
2023-05-25T13:10:35.643Z,1.08
2023-05-25T13:13:03.899Z,1.10
2023-05-25T13:15:30.977Z,1.20
2023-05-25T13:17:58.730Z,0.93
2023-05-25T13:20:27.465Z,0.95
2023-05-25T13:22:58.162Z,1.15
2023-05-25T13:25:27.894Z,1.40
2023-05-25T13:27:58.055Z,1.02
2023-05-25T13:30:26.752Z,1.10
2023-05-25T13:32:53.935Z,1.10
2023-05-25T13:35:37.714Z,0.80
2023-05-25T13:38:05.836Z,1.00
2023-05-25T13:40:33.025Z,1.17
2023-05-25T13:42:59.864Z,0.70
2023-05-25T13:45:27.625Z,0.93
2023-05-25T13:47:54.689Z,1.40
2023-05-25T13:50:21.655Z,1.10
2023-05-25T13:52:49.220Z,1.10
2023-05-25T13:55:16.194Z,0.80
2023-05-25T13:57:43.100Z,0.88
2023-05-25T14:00:10.365Z,0.70
2023-05-25T14:02:38.007Z,0.80
2023-05-25T14:05:05.423Z,0.60
2023-05-25T14:07:32.776Z,0.93
2023-05-25T14:10:00.239Z,0.80
2023-05-25T14:12:28.018Z,0.70
2023-05-25T14:14:55.088Z,0.90
2023-05-25T14:17:22.281Z,0.90
2023-05-25T14:19:49.644Z,0.95
2023-05-25T14:22:17.084Z,0.88
2023-05-25T14:24:44.506Z,1.00
2023-05-25T14:27:11.548Z,1.05
2023-05-25T14:29:39.388Z,0.90
2023-05-25T14:32:06.362Z,0.80
2023-05-25T14:34:33.313Z,0.80
2023-05-25T14:37:00.372Z,0.75
2023-05-25T14:39:27.730Z,0.88
2023-05-25T14:41:55.218Z,1.20
2023-05-25T14:44:22.511Z,0.80
2023-05-25T14:46:49.497Z,1.10
2023-05-25T14:49:17.330Z,1.00
2023-05-25T14:51:44.337Z,0.88
2023-05-25T14:54:13.698Z,0.85
2023-05-25T14:56:41.885Z,1.30
2023-05-25T14:59:08.927Z,0.70
2023-05-25T15:01:37.106Z,1.00
2023-05-25T15:04:04.703Z,0.68
2023-05-25T15:06:34.482Z,0.85
2023-05-25T15:09:01.470Z,0.77
2023-05-25T15:11:28.839Z,0.85
2023-05-25T15:13:57.854Z,0.90
2023-05-25T15:16:25.047Z,0.75
2023-05-25T15:18:52.400Z,0.88
2023-05-25T15:21:19.422Z,0.68
2023-05-25T15:23:46.366Z,1.00
2023-05-25T15:26:14.161Z,0.90
2023-05-25T15:28:41.026Z,1.05
2023-05-25T15:31:07.970Z,1.15
2023-05-25T15:33:51.565Z,1.23
2023-05-25T15:36:21.250Z,0.93
2023-05-25T15:38:49.564Z,1.15
2023-05-25T15:41:17.500Z,1.05
2023-05-25T15:43:58.673Z,1.08
2023-05-25T15:46:26.230Z,1.17
2023-05-25T15:48:53.929Z,1.00
2023-05-25T15:51:21.350Z,1.10
2023-05-25T15:53:48.716Z,1.30
2023-05-25T15:56:15.819Z,1.38
2023-05-25T15:58:45.164Z,1.15
2023-05-25T16:01:13.868Z,1.23
2023-05-25T16:03:43.165Z,1.23
2023-05-25T16:06:11.214Z,1.20
2023-05-25T16:08:38.103Z,1.27
2023-05-25T16:11:05.379Z,1.63
2023-05-25T16:13:32.323Z,1.23
2023-05-25T16:16:00.829Z,1.20
2023-05-25T16:18:28.082Z,1.08
2023-05-25T16:20:58.458Z,1.40
2023-05-25T16:23:25.428Z,1.20
2023-05-25T16:25:52.513Z,1.30
2023-05-25T16:28:19.897Z,1.20
2023-05-25T16:30:46.972Z,1.30
2023-05-25T16:33:13.888Z,0.90
2023-05-25T16:35:41.271Z,1.27
2023-05-25T16:38:08.425Z,1.40
2023-05-25T16:40:37.071Z,1.63
2023-05-25T16:43:04.039Z,1.10
2023-05-25T16:45:31.143Z,1.55
2023-05-25T16:47:58.519Z,1.70
2023-05-25T16:50:25.997Z,1.75
2023-05-25T16:52:52.846Z,1.80
2023-05-25T16:55:19.817Z,1.60
2023-05-25T16:57:46.791Z,1.60
2023-05-25T17:00:14.343Z,2.00
2023-05-25T17:02:41.474Z,1.52
2023-05-25T17:05:09.309Z,2.03
2023-05-25T17:07:36.534Z,1.75
2023-05-25T17:10:03.779Z,1.88
2023-05-25T17:12:31.563Z,1.75
2023-05-25T17:14:58.566Z,1.60
2023-05-25T17:17:28.083Z,1.75
2023-05-25T17:19:55.666Z,1.80
2023-05-25T17:22:22.823Z,1.90
2023-05-25T17:24:49.697Z,1.60
2023-05-25T17:27:16.727Z,1.92
2023-05-25T17:29:43.703Z,1.73
2023-05-25T17:32:10.860Z,1.75
2023-05-25T17:34:37.846Z,1.60
2023-05-25T17:37:05.512Z,1.85
2023-05-25T17:39:32.397Z,1.60
2023-05-25T17:41:59.718Z,1.75
2023-05-25T17:44:26.978Z,1.98
2023-05-25T17:46:53.901Z,1.83
2023-05-25T17:49:21.323Z,1.85
2023-05-25T17:51:48.640Z,1.80
2023-05-25T17:54:18.669Z,1.60
2023-05-25T17:56:46.506Z,2.03
2023-05-25T17:59:13.445Z,1.90
2023-05-25T18:01:40.900Z,1.75
2023-05-25T18:04:08.532Z,4.15
2023-05-25T18:06:36.927Z,2.47
2023-05-25T18:09:04.383Z,1.92
2023-05-25T18:11:33.640Z,2.00
2023-05-25T18:14:01.083Z,2.72
2023-05-25T18:16:28.082Z,4.45
2023-05-25T18:18:55.028Z,2.28
2023-05-25T18:21:21.955Z,2.50
2023-05-25T18:23:48.853Z,2.35
2023-05-25T18:26:15.836Z,2.58
2023-05-25T18:28:42.835Z,2.65
2023-05-25T18:31:09.897Z,2.50
2023-05-25T18:33:36.840Z,2.42
2023-05-25T18:36:05.238Z,1.75
2023-05-25T18:38:32.126Z,2.00
2023-05-25T18:40:59.257Z,2.10
2023-05-25T18:43:26.514Z,2.50
2023-05-25T18:45:53.890Z,2.40
2023-05-25T18:48:23.674Z,2.60
2023-05-25T18:50:51.402Z,2.40
2023-05-25T18:53:18.393Z,2.05
2023-05-25T18:55:46.001Z,2.80
2023-05-25T18:58:13.132Z,2.55
2023-05-25T19:00:40.046Z,2.67
2023-05-25T19:03:07.085Z,2.53
2023-05-25T19:05:34.902Z,2.70
2023-05-25T19:08:01.781Z,2.97
2023-05-25T19:10:28.745Z,3.50
2023-05-25T19:12:55.768Z,3.45
2023-05-25T19:15:22.894Z,3.47
2023-05-25T19:17:49.929Z,3.70
2023-05-25T19:20:17.204Z,4.10
2023-05-25T19:22:44.355Z,3.45
2023-05-25T19:25:11.882Z,3.47
2023-05-25T19:27:39.227Z,4.00
2023-05-25T19:30:07.071Z,3.78
2023-05-25T19:32:33.997Z,3.95
2023-05-25T19:35:00.980Z,3.45
2023-05-25T19:37:28.116Z,3.42
2023-05-25T19:39:55.529Z,3.70
2023-05-25T19:42:22.499Z,4.22
2023-05-25T19:44:49.451Z,3.30
2023-05-25T19:47:17.176Z,4.13
2023-05-25T19:49:44.203Z,4.20
2023-05-25T19:52:11.130Z,4.40
2023-05-25T19:54:38.579Z,4.10
2023-05-25T19:57:06.840Z,3.15
2023-05-25T19:59:33.905Z,3.67
2023-05-25T20:02:01.221Z,3.33
2023-05-25T20:04:28.168Z,3.20
2023-05-25T20:06:55.332Z,3.47
2023-05-25T20:09:30.220Z,4.20
2023-05-25T20:11:58.556Z,3.50
2023-05-25T20:14:25.847Z,3.42
2023-05-25T20:16:55.400Z,3.58
2023-05-25T20:19:23.318Z,3.40
2023-05-25T20:21:50.585Z,3.13
2023-05-25T20:24:18.111Z,3.42
2023-05-25T20:26:45.133Z,3.15
2023-05-25T20:29:12.479Z,3.65
2023-05-25T20:31:40.348Z,4.25
2023-05-25T20:34:07.848Z,3.58
2023-05-25T20:36:34.775Z,4.22
2023-05-25T20:39:03.283Z,4.30
2023-05-25T20:41:30.819Z,3.92
2023-05-25T20:43:57.951Z,3.80
2023-05-25T20:46:26.159Z,3.95
2023-05-25T20:48:53.659Z,3.85
2023-05-25T20:51:21.787Z,3.75
2023-05-25T20:53:48.859Z,4.10
2023-05-25T20:56:16.224Z,3.78
2023-05-25T20:58:44.902Z,4.55
2023-05-25T21:01:11.932Z,3.25
2023-05-25T21:03:39.986Z,3.50
2023-05-25T21:06:07.131Z,3.83
2023-05-25T21:08:34.776Z,3.47
2023-05-25T21:11:01.923Z,3.38
2023-05-25T21:13:28.905Z,3.58
2023-05-25T21:15:56.532Z,3.75
2023-05-25T21:18:23.772Z,3.75
2023-05-25T21:20:51.113Z,3.20
2023-05-25T21:23:18.533Z,4.20
2023-05-25T21:25:46.004Z,3.42
2023-05-25T21:28:13.251Z,3.53
2023-05-25T21:30:40.646Z,3.38
2023-05-25T21:33:07.595Z,3.35
2023-05-25T21:35:34.616Z,3.25
2023-05-25T21:38:01.557Z,3.35
2023-05-25T21:40:28.710Z,3.50
2023-05-25T21:42:55.724Z,3.30
2023-05-25T21:45:23.211Z,2.97
2023-05-25T21:47:50.293Z,3.10
2023-05-25T21:50:17.483Z,2.97
2023-05-25T21:52:44.420Z,3.35
2023-05-25T21:55:11.543Z,3.20
2023-05-25T21:57:38.451Z,2.90
2023-05-25T22:00:06.575Z,3.00
2023-05-25T22:02:33.698Z,3.15
2023-05-25T22:05:00.830Z,3.60
2023-05-25T22:07:27.868Z,3.83
2023-05-25T22:09:54.879Z,4.00
2023-05-25T22:12:22.140Z,3.97
2023-05-25T22:14:49.016Z,4.05
2023-05-25T22:17:17.431Z,3.42
2023-05-25T22:19:47.069Z,3.70
2023-05-25T22:22:19.197Z,3.30
2023-05-25T22:24:46.119Z,3.38
2023-05-25T22:27:13.434Z,3.75
2023-05-25T22:29:40.431Z,3.45
2023-05-25T22:32:07.358Z,3.45
2023-05-25T22:34:34.725Z,3.53
2023-05-25T22:37:02.506Z,3.45
2023-05-25T22:39:29.430Z,3.20
2023-05-25T22:41:56.387Z,3.33
2023-05-25T22:44:23.641Z,4.10
2023-05-25T22:46:50.630Z,4.00
2023-05-25T22:49:18.083Z,4.00
2023-05-25T22:51:45.183Z,3.45
2023-05-25T22:54:13.297Z,3.55
2023-05-25T22:56:40.367Z,3.17
2023-05-25T22:59:07.395Z,3.88
2023-05-25T23:01:34.388Z,3.58
2023-05-25T23:04:01.515Z,3.20
2023-05-25T23:06:29.030Z,3.58
2023-05-25T23:08:57.674Z,3.55
2023-05-25T23:11:27.138Z,3.88
2023-05-25T23:13:54.775Z,3.63
2023-05-25T23:16:21.721Z,3.15
2023-05-25T23:18:49.184Z,2.90
2023-05-25T23:21:16.527Z,3.35
2023-05-25T23:23:43.577Z,2.90
2023-05-25T23:26:10.580Z,3.72
2023-05-25T23:28:37.572Z,3.58
2023-05-25T23:31:04.732Z,3.58
2023-05-25T23:33:31.816Z,2.92
2023-05-25T23:35:59.787Z,3.30
2023-05-25T23:38:26.698Z,3.00
2023-05-25T23:40:53.686Z,3.15
2023-05-25T23:43:21.244Z,3.38
2023-05-25T23:45:48.536Z,3.20
2023-05-25T23:48:15.669Z,3.45
2023-05-25T23:50:43.031Z,3.35
2023-05-25T23:53:10.074Z,2.75
2023-05-25T23:55:37.080Z,3.70
2023-05-25T23:58:03.937Z,3.30
